createdAt,value
2022-09-10T00:01:10.346Z,13.90
2022-09-10T00:03:59.018Z,13.90
2022-09-10T00:06:48.385Z,13.80
2022-09-10T00:09:36.502Z,13.80
2022-09-10T00:12:24.561Z,13.80
2022-09-10T00:15:13.695Z,13.80
2022-09-10T00:18:01.702Z,13.70
2022-09-10T00:20:52.369Z,13.70
2022-09-10T00:23:45.527Z,13.60
2022-09-10T00:26:38.114Z,13.60
2022-09-10T00:29:26.236Z,13.50
2022-09-10T00:32:14.642Z,13.50
2022-09-10T00:35:02.736Z,13.50
2022-09-10T00:37:50.787Z,13.50
2022-09-10T00:40:40.549Z,13.40
2022-09-10T00:43:46.418Z,13.40
2022-09-10T00:46:39.821Z,13.40
2022-09-10T00:49:33.198Z,13.40
2022-09-10T00:52:21.502Z,13.30
2022-09-10T00:55:10.881Z,13.30
2022-09-10T00:58:01.291Z,13.30
2022-09-10T01:00:49.939Z,13.20
2022-09-10T01:03:39.772Z,13.20
2022-09-10T01:06:27.998Z,13.20
2022-09-10T01:09:16.301Z,13.20
2022-09-10T01:12:16.185Z,13.20
2022-09-10T01:15:15.843Z,13.20
2022-09-10T01:18:31.933Z,13.10
2022-09-10T01:21:25.411Z,13.10
2022-09-10T01:24:51.960Z,13.10
2022-09-10T01:27:45.138Z,13.10
2022-09-10T01:30:37.926Z,13.00
2022-09-10T01:33:34.094Z,13.00
2022-09-10T01:36:26.661Z,13.00
2022-09-10T01:39:16.234Z,12.90
2022-09-10T01:42:04.756Z,12.90
2022-09-10T01:44:57.874Z,12.90
2022-09-10T01:48:16.454Z,12.90
2022-09-10T01:51:11.351Z,12.90
2022-09-10T01:54:14.756Z,12.80
2022-09-10T01:57:08.752Z,12.80
2022-09-10T02:00:06.971Z,12.80
2022-09-10T02:03:00.056Z,12.80
2022-09-10T02:05:53.885Z,12.80
2022-09-10T02:08:44.394Z,12.80
2022-09-10T02:11:43.747Z,12.90
2022-09-10T02:14:31.790Z,12.80
2022-09-10T02:17:22.926Z,12.80
2022-09-10T02:20:14.869Z,12.80
2022-09-10T02:23:03.579Z,12.80
2022-09-10T02:25:51.662Z,12.70
2022-09-10T02:28:40.025Z,12.80
2022-09-10T02:31:28.622Z,12.70
2022-09-10T02:34:17.999Z,12.80
2022-09-10T02:37:05.990Z,12.70
2022-09-10T02:39:54.663Z,12.70
2022-09-10T02:42:46.444Z,12.70
2022-09-10T02:45:34.471Z,12.80
2022-09-10T02:48:22.519Z,12.80
2022-09-10T02:51:13.034Z,12.90
2022-09-10T02:54:01.420Z,12.70
2022-09-10T02:56:49.877Z,12.70
2022-09-10T02:59:37.890Z,12.80
2022-09-10T03:02:25.997Z,12.70
2022-09-10T03:05:14.080Z,12.80
2022-09-10T03:08:04.004Z,12.70
2022-09-10T03:10:52.031Z,12.70
2022-09-10T03:13:40.504Z,12.70
2022-09-10T03:16:28.644Z,12.80
2022-09-10T03:19:17.474Z,12.70
2022-09-10T03:22:05.666Z,12.60
2022-09-10T03:24:55.099Z,12.60
2022-09-10T03:27:43.097Z,12.50
2022-09-10T03:30:32.083Z,12.60
2022-09-10T03:33:21.200Z,12.60
2022-09-10T03:36:10.850Z,12.60
2022-09-10T03:38:59.674Z,12.50
2022-09-10T03:41:49.256Z,12.50
2022-09-10T03:44:37.444Z,12.30
2022-09-10T03:47:25.766Z,12.50
2022-09-10T03:50:13.850Z,12.50
2022-09-10T03:53:03.985Z,12.40
2022-09-10T03:55:55.733Z,12.40
2022-09-10T03:58:45.048Z,12.50
2022-09-10T04:01:33.134Z,12.40
2022-09-10T04:04:21.196Z,12.40
2022-09-10T04:07:10.673Z,12.40
2022-09-10T04:09:58.654Z,12.40
2022-09-10T04:12:46.682Z,12.40
2022-09-10T04:15:36.379Z,12.20
2022-09-10T04:18:26.462Z,12.40
2022-09-10T04:21:14.501Z,12.30
2022-09-10T04:24:03.121Z,12.40
2022-09-10T04:26:51.204Z,12.40
2022-09-10T04:29:39.345Z,12.50
2022-09-10T04:32:28.801Z,12.40
2022-09-10T04:35:17.148Z,12.40
2022-09-10T04:38:05.340Z,12.40
2022-09-10T04:40:53.436Z,12.30
2022-09-10T04:43:41.476Z,12.30
2022-09-10T04:46:29.494Z,12.30
2022-09-10T04:49:18.890Z,12.30
2022-09-10T04:52:06.976Z,12.30
2022-09-10T04:54:54.982Z,12.30
2022-09-10T04:57:43.168Z,12.30
2022-09-10T05:00:31.181Z,12.30
2022-09-10T05:03:19.199Z,12.30
2022-09-10T05:06:08.759Z,12.50
2022-09-10T05:08:56.946Z,12.40
2022-09-10T05:11:47.085Z,12.40
2022-09-10T05:14:35.100Z,12.50
2022-09-10T05:17:23.114Z,12.50
2022-09-10T05:20:11.740Z,12.50
2022-09-10T05:23:01.067Z,12.50
2022-09-10T05:25:49.616Z,12.40
2022-09-10T05:28:37.723Z,12.60
2022-09-10T05:31:25.730Z,12.60
2022-09-10T05:34:13.723Z,12.70
2022-09-10T05:37:01.788Z,12.70
2022-09-10T05:39:51.240Z,12.80
2022-09-10T05:42:39.269Z,12.70
2022-09-10T05:45:27.632Z,12.80
2022-09-10T05:48:16.118Z,12.90
2022-09-10T05:51:04.274Z,13.10
2022-09-10T05:53:52.318Z,13.30
2022-09-10T05:56:41.787Z,13.30
2022-09-10T05:59:29.909Z,14.30
2022-09-10T06:02:23.820Z,13.40
2022-09-10T06:05:12.722Z,13.50
2022-09-10T06:08:03.358Z,13.50
2022-09-10T06:10:58.768Z,13.70
2022-09-10T06:13:48.543Z,13.70
2022-09-10T06:16:36.762Z,13.70
2022-09-10T06:19:24.980Z,13.80
2022-09-10T06:22:13.488Z,14.00
2022-09-10T06:25:01.593Z,14.00
2022-09-10T06:27:49.571Z,14.20
2022-09-10T06:30:39.014Z,14.20
2022-09-10T06:33:27.368Z,14.30
2022-09-10T06:36:16.149Z,14.30
2022-09-10T06:39:04.243Z,14.50
2022-09-10T06:41:53.204Z,14.50
2022-09-10T06:44:41.188Z,14.60
2022-09-10T06:48:18.818Z,14.70
2022-09-10T06:50:38.442Z,14.80
2022-09-10T06:53:28.615Z,14.90
2022-09-10T06:56:17.543Z,15.00
2022-09-10T06:59:05.575Z,15.20
2022-09-10T07:01:54.930Z,15.20
2022-09-10T07:04:44.289Z,15.30
2022-09-10T07:07:32.260Z,15.40
2022-09-10T07:10:20.255Z,15.50
2022-09-10T07:13:08.711Z,15.60
2022-09-10T07:15:56.742Z,15.80
2022-09-10T07:18:44.901Z,15.70
2022-09-10T07:21:37.869Z,15.80
2022-09-10T07:24:25.866Z,16.00
2022-09-10T07:27:13.836Z,16.00
2022-09-10T07:30:01.825Z,16.10
2022-09-10T07:32:50.387Z,16.10
2022-09-10T07:35:39.411Z,16.20
2022-09-10T07:38:28.778Z,16.50
2022-09-10T07:41:16.765Z,16.60
2022-09-10T07:44:05.158Z,16.60
2022-09-10T07:46:53.290Z,16.70
2022-09-10T07:49:41.250Z,16.90
2022-09-10T07:52:29.214Z,16.90
2022-09-10T07:55:19.159Z,17.00
2022-09-10T07:58:07.332Z,17.10
2022-09-10T08:00:55.373Z,17.20
2022-09-10T08:03:43.338Z,17.30
2022-09-10T08:06:32.215Z,17.40
2022-09-10T08:09:20.282Z,17.40
2022-09-10T08:12:09.975Z,17.50
2022-09-10T08:14:58.843Z,17.60
2022-09-10T08:17:46.822Z,17.80
2022-09-10T08:20:34.824Z,17.90
2022-09-10T08:23:23.086Z,17.90
2022-09-10T08:26:11.173Z,18.10
2022-09-10T08:29:02.653Z,18.10
2022-09-10T08:31:50.659Z,18.20
2022-09-10T08:37:30.979Z,18.30
2022-09-10T08:40:19.362Z,18.30
2022-09-10T08:43:08.342Z,18.40
2022-09-10T08:45:59.753Z,18.60
2022-09-10T08:48:50.808Z,18.80
2022-09-10T08:51:44.746Z,19.00
2022-09-10T08:54:38.778Z,19.20
2022-09-10T08:57:32.791Z,19.40
2022-09-10T09:00:23.031Z,19.50
2022-09-10T09:03:19.222Z,19.50
2022-09-10T09:06:16.091Z,19.50
2022-09-10T09:09:05.546Z,19.30
2022-09-10T09:12:01.282Z,18.80
2022-09-10T09:15:06.884Z,19.30
2022-09-10T09:18:11.888Z,19.40
2022-09-10T09:21:09.219Z,19.60
2022-09-10T09:24:14.268Z,19.70
2022-09-10T09:27:09.942Z,19.80
2022-09-10T09:30:02.353Z,20.00
2022-09-10T09:32:51.374Z,19.80
2022-09-10T09:35:47.135Z,19.90
2022-09-10T09:38:40.543Z,20.00
2022-09-10T09:41:35.468Z,20.20
2022-09-10T09:44:28.170Z,20.30
2022-09-10T09:47:16.287Z,20.30
2022-09-10T09:50:04.771Z,20.20
2022-09-10T09:52:56.434Z,20.30
2022-09-10T09:55:48.194Z,20.50
2022-09-10T09:58:37.498Z,20.70
2022-09-10T10:01:26.880Z,21.00
2022-09-10T10:04:22.370Z,21.20
2022-09-10T10:07:11.850Z,21.40
2022-09-10T10:10:01.345Z,21.60
2022-09-10T10:12:52.351Z,21.80
2022-09-10T10:15:42.447Z,21.80
2022-09-10T10:18:34.445Z,21.70
2022-09-10T10:21:31.356Z,21.40
2022-09-10T10:24:31.812Z,21.40
2022-09-10T10:27:32.990Z,21.50
2022-09-10T10:30:27.547Z,21.40
2022-09-10T10:33:19.203Z,21.30
2022-09-10T10:36:15.875Z,21.30
2022-09-10T10:39:09.892Z,21.20
2022-09-10T10:42:04.500Z,21.00
2022-09-10T10:45:05.986Z,20.80
2022-09-10T10:48:02.511Z,20.50
2022-09-10T10:50:59.180Z,20.40
2022-09-10T10:54:14.635Z,20.40
2022-09-10T10:57:12.982Z,20.40
2022-09-10T11:00:07.364Z,20.40
2022-09-10T11:03:05.563Z,20.40
2022-09-10T11:05:58.832Z,20.50
2022-09-10T11:08:51.593Z,20.60
2022-09-10T11:11:49.975Z,20.90
2022-09-10T11:14:44.171Z,20.70
2022-09-10T11:17:40.903Z,20.50
2022-09-10T11:20:34.324Z,20.50
2022-09-10T11:23:29.819Z,20.60
2022-09-10T11:26:24.048Z,20.50
2022-09-10T11:29:27.119Z,20.50
2022-09-10T11:32:22.540Z,20.50
2022-09-10T11:35:21.450Z,20.50
2022-09-10T11:38:20.584Z,20.70
2022-09-10T11:41:15.175Z,20.60
2022-09-10T11:44:14.433Z,20.50
2022-09-10T11:47:07.527Z,20.40
2022-09-10T11:50:01.233Z,20.30
2022-09-10T11:52:50.495Z,20.20
2022-09-10T11:56:06.684Z,20.20
2022-09-10T11:59:04.754Z,20.20
2022-09-10T12:02:17.102Z,20.20
2022-09-10T12:05:15.760Z,20.40
2022-09-10T12:08:13.763Z,20.50
2022-09-10T12:11:13.933Z,20.70
2022-09-10T12:14:07.364Z,20.70
2022-09-10T12:16:59.538Z,20.80
2022-09-10T12:19:50.408Z,20.90
2022-09-10T12:22:42.046Z,20.90
2022-09-10T12:25:34.633Z,21.00
2022-09-10T12:29:02.474Z,21.00
2022-09-10T12:32:30.245Z,21.30
2022-09-10T12:35:47.625Z,21.70
2022-09-10T12:38:50.877Z,22.20
2022-09-10T12:41:57.870Z,22.40
2022-09-10T12:44:47.709Z,22.70
2022-09-10T12:47:45.149Z,23.30
2022-09-10T12:50:46.491Z,23.70
2022-09-10T12:54:07.410Z,23.80
2022-09-10T12:57:09.599Z,23.90
2022-09-10T13:00:22.005Z,23.90
2022-09-10T13:03:15.319Z,24.10
2022-09-10T13:06:07.085Z,24.30
2022-09-10T13:08:55.634Z,25.30
2022-09-10T13:11:47.474Z,26.40
2022-09-10T13:14:38.302Z,28.10
2022-09-10T13:17:41.259Z,29.00
2022-09-10T13:20:32.231Z,29.60
2022-09-10T13:23:48.533Z,30.30
2022-09-10T13:27:03.614Z,31.40
2022-09-10T13:29:55.190Z,32.30
2022-09-10T13:32:48.135Z,32.80
2022-09-10T13:36:06.477Z,32.80
2022-09-10T13:39:28.713Z,32.30
2022-09-10T13:42:38.980Z,31.20
2022-09-10T13:45:29.955Z,31.10
2022-09-10T13:48:22.707Z,30.60
2022-09-10T13:51:21.331Z,30.60
2022-09-10T13:54:27.683Z,30.30
2022-09-10T13:57:20.051Z,31.00
2022-09-10T14:00:20.668Z,31.80
2022-09-10T14:03:16.319Z,32.20
2022-09-10T14:06:07.558Z,31.90
2022-09-10T14:08:58.094Z,31.20
2022-09-10T14:11:46.856Z,30.70
2022-09-10T14:14:39.171Z,30.60
2022-09-10T14:17:33.047Z,30.60
2022-09-10T14:20:26.705Z,30.40
2022-09-10T14:23:16.954Z,29.50
2022-09-10T14:26:13.617Z,28.40
2022-09-10T14:29:04.189Z,27.30
2022-09-10T14:31:52.395Z,26.00
2022-09-10T14:34:41.839Z,24.80
2022-09-10T14:37:33.266Z,24.10
2022-09-10T14:40:22.971Z,23.60
2022-09-10T14:43:16.190Z,23.10
2022-09-10T14:46:06.310Z,22.80
2022-09-10T14:49:11.020Z,22.50
2022-09-10T14:52:01.940Z,22.40
2022-09-10T14:54:49.906Z,22.30
2022-09-10T14:57:38.383Z,22.60
2022-09-10T15:00:26.843Z,22.50
2022-09-10T15:03:17.042Z,22.50
2022-09-10T15:06:05.466Z,22.30
2022-09-10T15:08:56.658Z,22.20
2022-09-10T15:11:53.484Z,21.90
2022-09-10T15:14:42.073Z,21.70
2022-09-10T15:17:30.142Z,21.70
2022-09-10T15:20:18.488Z,21.70
2022-09-10T15:23:06.903Z,22.40
2022-09-10T15:25:59.944Z,24.50
2022-09-10T15:28:47.961Z,24.60
2022-09-10T15:31:36.452Z,26.00
2022-09-10T15:34:26.139Z,27.70
2022-09-10T15:37:14.116Z,29.50
2022-09-10T15:40:02.311Z,29.80
2022-09-10T15:42:52.292Z,29.20
2022-09-10T15:45:40.349Z,27.90
2022-09-10T15:48:28.305Z,26.60
2022-09-10T15:51:21.359Z,26.00
2022-09-10T15:54:11.118Z,25.60
2022-09-10T15:57:00.348Z,25.20
2022-09-10T15:59:50.139Z,24.70
2022-09-10T16:02:38.450Z,24.20
2022-09-10T16:05:26.560Z,23.80
2022-09-10T16:08:14.563Z,23.50
2022-09-10T16:11:08.578Z,23.10
2022-09-10T16:14:02.184Z,22.60
2022-09-10T16:16:53.798Z,22.50
2022-09-10T16:19:42.223Z,22.40
2022-09-10T16:22:31.823Z,22.30
2022-09-10T16:25:20.075Z,22.20
2022-09-10T16:28:08.151Z,22.10
2022-09-10T16:30:57.838Z,21.90
2022-09-10T16:33:49.833Z,21.80
2022-09-10T16:36:41.523Z,21.70
2022-09-10T16:39:29.693Z,21.60
2022-09-10T16:42:18.066Z,21.10
2022-09-10T16:45:06.796Z,21.00
2022-09-10T16:47:55.209Z,20.80
2022-09-10T16:50:44.512Z,20.60
2022-09-10T16:53:32.680Z,20.40
2022-09-10T16:56:20.651Z,20.30
2022-09-10T16:59:11.265Z,20.10
2022-09-10T17:02:00.566Z,19.90
2022-09-10T17:04:48.610Z,19.80
2022-09-10T17:07:37.898Z,19.60
2022-09-10T17:10:26.943Z,19.60
2022-09-10T17:13:14.939Z,19.60
2022-09-10T17:16:17.427Z,19.50
2022-09-10T17:19:07.768Z,19.40
2022-09-10T17:21:56.706Z,19.50
2022-09-10T17:24:49.326Z,19.50
2022-09-10T17:27:37.291Z,19.40
2022-09-10T17:30:25.547Z,19.30
2022-09-10T17:33:13.890Z,19.30
2022-09-10T17:36:04.469Z,19.20
2022-09-10T17:38:53.567Z,19.10
2022-09-10T17:41:43.476Z,19.00
2022-09-10T17:44:31.446Z,19.00
2022-09-10T17:47:20.068Z,19.00
2022-09-10T17:50:09.306Z,18.80
2022-09-10T17:52:57.439Z,18.80
2022-09-10T17:55:46.592Z,18.70
2022-09-10T17:58:36.449Z,18.60
2022-09-10T18:01:26.360Z,18.60
2022-09-10T18:04:15.614Z,18.60
2022-09-10T18:07:03.675Z,18.60
2022-09-10T18:09:52.042Z,18.50
2022-09-10T18:12:40.030Z,18.50
2022-09-10T18:15:30.516Z,18.50
2022-09-10T18:18:18.640Z,18.50
2022-09-10T18:21:14.167Z,18.50
2022-09-10T18:24:04.324Z,18.40
2022-09-10T18:26:54.162Z,18.40
2022-09-10T18:29:43.000Z,18.40
2022-09-10T18:32:32.307Z,18.40
2022-09-10T18:35:20.626Z,18.40
2022-09-10T18:38:08.591Z,18.40
2022-09-10T18:40:57.318Z,18.40
2022-09-10T18:43:45.378Z,18.40
2022-09-10T18:46:33.971Z,18.30
2022-09-10T18:49:25.190Z,18.30
2022-09-10T18:52:13.716Z,18.10
2022-09-10T18:55:01.682Z,18.10
2022-09-10T18:57:49.644Z,17.90
2022-09-10T19:00:39.024Z,17.90
2022-09-10T19:03:27.021Z,17.80
2022-09-10T19:06:18.680Z,17.70
2022-09-10T19:09:09.216Z,17.60
2022-09-10T19:12:00.315Z,17.50
2022-09-10T19:14:48.326Z,17.40
2022-09-10T19:17:36.287Z,17.30
2022-09-10T19:20:26.466Z,17.30
2022-09-10T19:23:19.651Z,17.20
2022-09-10T19:26:09.911Z,17.10
2022-09-10T19:28:59.450Z,17.00
2022-09-10T19:31:48.662Z,17.00
2022-09-10T19:34:37.060Z,16.90
2022-09-10T19:37:25.118Z,16.90
2022-09-10T19:40:14.606Z,16.80
2022-09-10T19:43:02.724Z,16.70
2022-09-10T19:45:55.917Z,16.70
2022-09-10T19:48:45.171Z,16.60
2022-09-10T19:51:35.411Z,16.60
2022-09-10T19:54:25.572Z,16.60
2022-09-10T19:57:14.901Z,16.50
2022-09-10T20:00:03.186Z,16.50
2022-09-10T20:02:51.385Z,16.40
2022-09-10T20:05:39.395Z,16.40
2022-09-10T20:08:27.384Z,16.30
2022-09-10T20:11:17.952Z,16.30
2022-09-10T20:14:10.006Z,16.20
2022-09-10T20:16:58.192Z,16.20
2022-09-10T20:19:46.582Z,16.20
2022-09-10T20:22:38.221Z,16.20
2022-09-10T20:25:28.588Z,16.10
2022-09-10T20:28:16.582Z,16.10
2022-09-10T20:31:08.928Z,16.10
2022-09-10T20:33:58.976Z,16.00
2022-09-10T20:36:47.729Z,15.90
2022-09-10T20:39:36.409Z,15.90
2022-09-10T20:42:27.750Z,15.80
2022-09-10T20:45:15.799Z,15.80
2022-09-10T20:48:05.296Z,15.70
2022-09-10T20:50:54.484Z,15.70
2022-09-10T20:53:43.451Z,15.60
2022-09-10T20:56:31.588Z,15.60
2022-09-10T20:59:20.860Z,15.50
2022-09-10T21:02:12.949Z,15.40
2022-09-10T21:05:02.327Z,15.40
2022-09-10T21:07:50.558Z,15.40
2022-09-10T21:10:38.625Z,15.30
2022-09-10T21:13:28.052Z,15.30
2022-09-10T21:16:18.408Z,15.20
2022-09-10T21:19:08.743Z,15.20
2022-09-10T21:21:58.046Z,15.10
2022-09-10T21:24:46.040Z,15.10
2022-09-10T21:27:34.463Z,15.10
2022-09-10T21:30:22.474Z,15.00
2022-09-10T21:33:10.465Z,15.00
2022-09-10T21:36:02.708Z,14.90
2022-09-10T21:38:54.248Z,14.90
2022-09-10T21:41:44.089Z,14.80
2022-09-10T21:44:32.305Z,14.80
2022-09-10T21:47:20.328Z,14.80
2022-09-10T21:50:09.115Z,14.80
2022-09-10T21:52:57.090Z,14.80
2022-09-10T21:55:46.384Z,14.80
2022-09-10T21:58:36.542Z,14.70
2022-09-10T22:01:27.368Z,14.70
2022-09-10T22:04:22.184Z,14.80
2022-09-10T22:07:11.018Z,14.70
2022-09-10T22:09:59.179Z,14.60
2022-09-10T22:12:48.942Z,14.60
2022-09-10T22:15:39.705Z,14.70
2022-09-10T22:18:27.758Z,14.60
2022-09-10T22:21:16.505Z,14.70
2022-09-10T22:24:04.610Z,14.70
2022-09-10T22:26:52.644Z,14.60
2022-09-10T22:29:41.944Z,14.60
2022-09-10T22:32:31.364Z,14.80
2022-09-10T22:35:19.335Z,14.70
2022-09-10T22:38:07.307Z,14.70
2022-09-10T22:40:57.039Z,14.80
2022-09-10T22:43:45.032Z,14.60
2022-09-10T22:46:35.101Z,14.60
2022-09-10T22:49:23.129Z,14.50
2022-09-10T22:52:11.804Z,14.60
2022-09-10T22:54:59.773Z,14.50
2022-09-10T22:57:48.056Z,14.50
2022-09-10T23:00:36.952Z,14.50
2022-09-10T23:03:26.997Z,14.60
2022-09-10T23:06:17.550Z,14.50
2022-09-10T23:09:08.576Z,14.50
2022-09-10T23:11:56.550Z,14.60
2022-09-10T23:14:44.717Z,14.50
2022-09-10T23:17:32.700Z,14.50
2022-09-10T23:20:22.869Z,14.50
2022-09-10T23:23:10.879Z,14.60
2022-09-10T23:26:05.147Z,14.60
2022-09-10T23:28:53.816Z,14.60
2022-09-10T23:31:42.081Z,14.60
2022-09-10T23:34:30.121Z,14.70
2022-09-10T23:37:19.691Z,14.70
2022-09-10T23:40:11.884Z,14.70
2022-09-10T23:42:59.943Z,14.70
2022-09-10T23:45:47.919Z,14.70
2022-09-10T23:48:36.001Z,14.70
2022-09-10T23:51:24.119Z,14.70
2022-09-10T23:54:13.581Z,14.60
2022-09-10T23:57:02.762Z,14.60
2022-09-10T23:59:50.784Z,14.60
